Mathews, Virginia
Current Conditions -  °F | °C
As of 5:35 AM on Friday 31 Oct 2014 (Local Time) from KW75 Reporting Station
Broken Clouds Broken Clouds  
Wind Chill: 47°   Ceiling: 5500
Heat Index: 50°   Visibility: 10mi
Dew Point: 43°   Wind: 7mph
Humidity: 77%   Direction: 20°NNE
Pressure: 29.97"   Gusts: NA
Location:  37.44°N, 76.32°W
Report Text: KW75 310935Z AUTO 02006KT 10SM BKN055 10/06 A2997 RMK AO1 T00990061
Loading
Personal Weather Stations






























Interactive Weather Map
Tropical Storm Tracking
New forecast layout! Learn more

10-Day Weather Forecast

Advertisements
Track Severe Weather on mobile